createdAt,value
2023-08-31T00:02:21.132Z,100710.00
2023-08-31T00:04:51.992Z,100706.53
2023-08-31T00:07:19.602Z,100704.91
2023-08-31T00:09:47.184Z,100697.91
2023-08-31T00:12:14.714Z,100701.47
2023-08-31T00:14:42.250Z,100698.88
2023-08-31T00:17:10.020Z,100697.22
2023-08-31T00:19:37.632Z,100698.19
2023-08-31T00:22:05.365Z,100702.59
2023-08-31T00:24:33.120Z,100707.94
2023-08-31T00:27:00.814Z,100704.50
2023-08-31T00:29:28.495Z,100702.84
2023-08-31T00:31:56.046Z,100710.81
2023-08-31T00:34:23.635Z,100706.56
2023-08-31T00:36:52.191Z,100695.25
2023-08-31T00:39:22.072Z,100704.13
2023-08-31T00:41:51.219Z,100693.69
2023-08-31T00:44:20.277Z,100703.38
2023-08-31T00:46:50.144Z,100704.31
2023-08-31T00:49:18.559Z,100704.34
2023-08-31T00:51:51.633Z,100707.03
2023-08-31T00:54:19.823Z,100709.66
2023-08-31T00:56:47.465Z,100700.91
2023-08-31T00:59:15.690Z,100705.25
2023-08-31T01:02:02.702Z,100702.69
2023-08-31T01:05:04.885Z,100699.28
2023-08-31T01:07:48.745Z,100696.69
2023-08-31T01:10:37.804Z,100698.44
2023-08-31T01:13:16.917Z,100702.81
2023-08-31T01:15:50.240Z,100708.97
2023-08-31T01:18:22.752Z,100701.97
2023-08-31T01:21:03.464Z,100707.25
2023-08-31T01:23:57.179Z,100710.72
2023-08-31T01:26:26.670Z,100712.50
2023-08-31T01:28:57.027Z,100702.81
2023-08-31T01:31:24.655Z,100708.09
2023-08-31T01:33:52.444Z,100717.78
2023-08-31T01:36:31.803Z,100721.22
2023-08-31T01:39:27.340Z,100723.81
2023-08-31T01:42:02.014Z,100714.97
2023-08-31T01:44:35.026Z,100713.16
2023-08-31T01:47:07.116Z,100717.47
2023-08-31T01:49:41.297Z,100722.63
2023-08-31T01:52:08.992Z,100728.75
2023-08-31T01:54:38.621Z,100718.13
2023-08-31T01:57:07.363Z,100723.25
2023-08-31T01:59:44.962Z,100717.09
2023-08-31T02:02:12.626Z,100728.44
2023-08-31T02:04:40.188Z,100723.13
2023-08-31T02:07:07.695Z,100728.31
2023-08-31T02:09:35.609Z,100715.09
2023-08-31T02:12:06.277Z,100715.09
2023-08-31T02:14:34.392Z,100726.44
2023-08-31T02:17:02.004Z,100720.22
2023-08-31T02:19:29.575Z,100710.50
2023-08-31T02:21:57.192Z,100706.03
2023-08-31T02:24:24.698Z,100715.69
2023-08-31T02:26:53.724Z,100708.56
2023-08-31T02:29:21.274Z,100715.53
2023-08-31T02:31:48.940Z,100716.44
2023-08-31T02:34:16.437Z,100714.59
2023-08-31T02:36:43.998Z,100710.19
2023-08-31T02:39:11.763Z,100715.44
2023-08-31T02:41:39.329Z,100710.13
2023-08-31T02:44:06.922Z,100707.53
2023-08-31T02:46:34.579Z,100711.03
2023-08-31T02:49:02.145Z,100716.25
2023-08-31T02:51:29.696Z,100712.78
2023-08-31T02:53:57.369Z,100716.22
2023-08-31T02:56:25.069Z,100723.19
2023-08-31T02:58:52.877Z,100726.69
2023-08-31T03:01:20.440Z,100716.94
2023-08-31T03:03:51.196Z,100723.94
2023-08-31T03:06:18.733Z,100721.25
2023-08-31T03:08:46.444Z,100717.69
2023-08-31T03:11:15.747Z,100719.34
2023-08-31T03:13:43.316Z,100726.38
2023-08-31T03:16:10.972Z,100728.06
2023-08-31T03:18:38.564Z,100722.88
2023-08-31T03:21:06.127Z,100724.72
2023-08-31T03:23:33.757Z,100723.09
2023-08-31T03:26:07.271Z,100717.06
2023-08-31T03:28:35.144Z,100716.31
2023-08-31T03:31:03.010Z,100714.59
2023-08-31T03:33:30.570Z,100710.19
2023-08-31T03:36:05.893Z,100704.06
2023-08-31T03:38:38.929Z,100711.09
2023-08-31T03:41:07.377Z,100711.16
2023-08-31T03:43:36.090Z,100714.69
2023-08-31T03:46:03.767Z,100706.84
2023-08-31T03:48:31.394Z,100720.09
2023-08-31T03:50:59.035Z,100718.34
2023-08-31T03:53:26.738Z,100718.41
2023-08-31T03:55:58.077Z,100717.72
2023-08-31T03:58:26.314Z,100725.69
2023-08-31T04:00:55.595Z,100722.19
2023-08-31T04:03:25.190Z,100724.03
2023-08-31T04:05:56.985Z,100728.53
2023-08-31T04:08:24.539Z,100728.66
2023-08-31T04:10:52.155Z,100725.22
2023-08-31T04:13:19.771Z,100719.09
2023-08-31T04:15:48.133Z,100731.44
2023-08-31T04:18:16.681Z,100729.72
2023-08-31T04:20:54.914Z,100729.72
2023-08-31T04:23:22.495Z,100733.38
2023-08-31T04:25:52.566Z,100731.66
2023-08-31T04:28:20.282Z,100731.72
2023-08-31T04:30:47.765Z,100733.53
2023-08-31T04:33:15.477Z,100738.00
2023-08-31T04:35:43.486Z,100735.41
2023-08-31T04:38:12.314Z,100750.41
2023-08-31T04:40:40.002Z,100746.94
2023-08-31T04:43:07.497Z,100749.59
2023-08-31T04:45:35.069Z,100745.28
2023-08-31T04:48:02.659Z,100750.56
2023-08-31T04:50:30.432Z,100758.50
2023-08-31T04:52:57.969Z,100764.63
2023-08-31T04:55:26.473Z,100762.91
2023-08-31T04:57:54.031Z,100765.53
2023-08-31T05:00:21.665Z,100774.34
2023-08-31T05:02:49.251Z,100781.34
2023-08-31T05:05:16.936Z,100783.94
2023-08-31T05:07:44.517Z,100782.16
2023-08-31T05:10:12.573Z,100790.88
2023-08-31T05:12:40.426Z,100792.59
2023-08-31T05:15:09.108Z,100791.69
2023-08-31T05:17:36.826Z,100801.25
2023-08-31T05:20:05.821Z,100805.63
2023-08-31T05:22:33.331Z,100806.47
2023-08-31T05:25:01.772Z,100809.97
2023-08-31T05:27:29.336Z,100812.50
2023-08-31T05:29:56.887Z,100817.72
2023-08-31T05:32:24.658Z,100821.97
2023-08-31T05:34:52.172Z,100820.09
2023-08-31T05:37:19.780Z,100816.50
2023-08-31T05:39:50.929Z,100821.56
2023-08-31T05:42:19.285Z,100821.47
2023-08-31T05:44:46.879Z,100828.38
2023-08-31T05:47:14.450Z,100823.06
2023-08-31T05:49:41.959Z,100817.75
2023-08-31T05:52:09.754Z,100818.56
2023-08-31T05:54:37.300Z,100829.16
2023-08-31T05:57:06.710Z,100825.59
2023-08-31T05:59:34.275Z,100829.06
2023-08-31T06:02:05.667Z,100826.38
2023-08-31T06:04:33.458Z,100826.25
2023-08-31T06:07:00.979Z,100832.28
2023-08-31T06:09:28.618Z,100834.88
2023-08-31T06:11:56.205Z,100838.19
2023-08-31T06:14:23.721Z,100838.91
2023-08-31T06:16:51.347Z,100844.03
2023-08-31T06:19:18.827Z,100843.81
2023-08-31T06:21:46.344Z,100854.16
2023-08-31T06:24:14.237Z,100852.09
2023-08-31T06:26:42.443Z,100848.22
2023-08-31T06:29:11.808Z,100851.41
2023-08-31T06:31:39.461Z,100851.84
2023-08-31T06:34:07.027Z,100856.88
2023-08-31T06:36:36.792Z,100854.94
2023-08-31T06:39:05.742Z,100857.41
2023-08-31T06:41:33.400Z,100863.34
2023-08-31T06:44:01.130Z,100860.16
2023-08-31T06:46:29.739Z,100855.94
2023-08-31T06:48:57.317Z,100863.34
2023-08-31T06:51:25.634Z,100854.13
2023-08-31T06:53:53.362Z,100866.38
2023-08-31T06:56:21.104Z,100854.03
2023-08-31T06:58:48.636Z,100869.03
2023-08-31T07:01:16.172Z,100868.69
2023-08-31T07:03:43.892Z,100880.25
2023-08-31T07:06:12.388Z,100877.66
2023-08-31T07:08:41.836Z,100875.56
2023-08-31T07:11:09.436Z,100883.91
2023-08-31T07:13:36.988Z,100885.75
2023-08-31T07:16:05.583Z,100882.75
2023-08-31T07:18:33.393Z,100887.19
2023-08-31T07:21:00.995Z,100885.47
2023-08-31T07:23:28.847Z,100901.09
2023-08-31T07:26:01.130Z,100894.09
2023-08-31T07:28:28.794Z,100894.97
2023-08-31T07:31:07.626Z,100890.28
2023-08-31T07:33:37.095Z,100886.75
2023-08-31T07:36:07.331Z,100882.44
2023-08-31T07:38:35.226Z,100894.63
2023-08-31T07:41:02.872Z,100896.34
2023-08-31T07:43:30.964Z,100893.69
2023-08-31T07:45:58.574Z,100901.34
2023-08-31T07:48:26.186Z,100900.56
2023-08-31T07:50:53.745Z,100894.81
2023-08-31T07:53:21.412Z,100900.75
2023-08-31T07:55:55.302Z,100901.16
2023-08-31T07:58:24.451Z,100903.50
2023-08-31T08:00:56.980Z,100901.66
2023-08-31T08:03:24.988Z,100910.53
2023-08-31T08:05:53.064Z,100911.28
2023-08-31T08:08:20.831Z,100915.69
2023-08-31T08:10:54.083Z,100914.56
2023-08-31T08:13:21.814Z,100915.59
2023-08-31T08:15:50.426Z,100920.19
2023-08-31T08:18:17.914Z,100917.59
2023-08-31T08:20:49.972Z,100921.34
2023-08-31T08:23:17.647Z,100921.63
2023-08-31T08:25:45.260Z,100918.50
2023-08-31T08:28:12.764Z,100924.31
2023-08-31T08:30:40.426Z,100913.88
2023-08-31T08:33:10.180Z,100917.34
2023-08-31T08:35:39.522Z,100922.88
2023-08-31T08:38:07.135Z,100927.81
2023-08-31T08:40:36.238Z,100922.22
2023-08-31T08:43:09.271Z,100922.47
2023-08-31T08:45:42.644Z,100928.09
2023-08-31T08:48:10.784Z,100925.34
2023-08-31T08:50:38.644Z,100931.53
2023-08-31T08:53:07.611Z,100931.81
2023-08-31T08:55:35.707Z,100940.09
2023-08-31T08:58:04.486Z,100929.66
2023-08-31T09:00:33.993Z,100927.94
2023-08-31T09:03:04.871Z,100928.41
2023-08-31T09:05:35.731Z,100934.41
2023-08-31T09:08:13.184Z,100934.06
2023-08-31T09:10:44.351Z,100925.97
2023-08-31T09:13:16.828Z,100932.59
2023-08-31T09:15:47.078Z,100924.13
2023-08-31T09:18:17.112Z,100930.88
2023-08-31T09:20:48.999Z,100932.44
2023-08-31T09:23:18.052Z,100934.88
2023-08-31T09:25:54.210Z,100935.78
2023-08-31T09:28:30.476Z,100931.88
2023-08-31T09:31:09.904Z,100932.78
2023-08-31T09:33:38.396Z,100935.16
2023-08-31T09:36:09.365Z,100937.34
2023-08-31T09:38:44.901Z,100937.84
2023-08-31T09:41:13.309Z,100946.38
2023-08-31T09:43:40.900Z,100941.28
2023-08-31T09:46:10.983Z,100937.94
2023-08-31T09:48:41.230Z,100930.16
2023-08-31T09:51:11.460Z,100938.69
2023-08-31T09:53:39.259Z,100932.41
2023-08-31T09:56:08.273Z,100935.50
2023-08-31T09:58:36.394Z,100941.50
2023-08-31T10:01:10.364Z,100942.78
2023-08-31T10:03:41.747Z,100944.56
2023-08-31T10:06:11.617Z,100939.69
2023-08-31T10:08:40.547Z,100949.91
2023-08-31T10:11:11.194Z,100938.53
2023-08-31T10:13:42.273Z,100952.47
2023-08-31T10:16:12.383Z,100948.28
2023-08-31T10:18:40.486Z,100946.22
2023-08-31T10:21:08.290Z,100945.88
2023-08-31T10:23:39.363Z,100942.81
2023-08-31T10:26:07.328Z,100953.22
2023-08-31T10:28:42.114Z,100942.53
2023-08-31T10:31:21.439Z,100938.22
2023-08-31T10:34:04.678Z,100939.53
2023-08-31T10:36:45.938Z,100934.53
2023-08-31T10:39:19.084Z,100931.63
2023-08-31T10:41:57.585Z,100940.75
2023-08-31T10:44:28.375Z,100929.91
2023-08-31T10:46:56.354Z,100927.81
2023-08-31T10:49:26.616Z,100928.56
2023-08-31T10:52:19.808Z,100918.63
2023-08-31T10:54:57.057Z,100927.16
2023-08-31T10:57:34.797Z,100916.69
2023-08-31T11:00:03.224Z,100924.16
2023-08-31T11:02:34.719Z,100931.81
2023-08-31T11:05:17.348Z,100920.81
2023-08-31T11:07:50.988Z,100917.44
2023-08-31T11:10:22.141Z,100923.97
2023-08-31T11:12:53.437Z,100921.28
2023-08-31T11:15:23.932Z,100919.63
2023-08-31T11:17:53.013Z,100918.13
2023-08-31T11:20:29.744Z,100916.78
2023-08-31T11:22:58.324Z,100920.19
2023-08-31T11:25:26.661Z,100925.91
2023-08-31T11:28:01.141Z,100927.84
2023-08-31T11:30:32.738Z,100923.22
2023-08-31T11:33:06.505Z,100913.72
2023-08-31T11:35:38.221Z,100927.53
2023-08-31T11:38:07.371Z,100931.63
2023-08-31T11:40:35.065Z,100941.03
2023-08-31T11:43:05.880Z,100938.03
2023-08-31T11:45:34.037Z,100945.44
2023-08-31T11:48:02.276Z,100945.53
2023-08-31T11:50:30.427Z,100946.19
2023-08-31T11:52:58.106Z,100946.31
2023-08-31T11:55:25.616Z,100951.13
2023-08-31T11:57:58.341Z,100943.22
2023-08-31T12:00:26.299Z,100960.94
2023-08-31T12:03:00.454Z,100958.88
2023-08-31T12:05:29.967Z,100951.03
2023-08-31T12:07:58.010Z,100956.09
2023-08-31T12:10:27.327Z,100954.66
2023-08-31T12:12:56.974Z,100949.50
2023-08-31T12:15:32.143Z,100952.38
2023-08-31T12:18:09.330Z,100965.84
2023-08-31T12:20:47.661Z,100982.38
2023-08-31T12:23:18.123Z,100983.38
2023-08-31T12:25:52.401Z,100987.13
2023-08-31T12:28:22.839Z,100981.34
2023-08-31T12:30:55.598Z,100979.94
2023-08-31T12:33:23.570Z,100978.81
2023-08-31T12:35:51.590Z,100981.06
2023-08-31T12:38:20.297Z,100983.88
2023-08-31T12:40:47.945Z,100987.56
2023-08-31T12:43:17.747Z,100990.38
2023-08-31T12:45:46.029Z,100992.59
2023-08-31T12:48:14.372Z,100991.16
2023-08-31T12:50:42.058Z,100982.47
2023-08-31T12:53:09.606Z,100985.06
2023-08-31T12:55:37.299Z,100982.16
2023-08-31T12:58:05.020Z,100981.03
2023-08-31T13:00:32.796Z,100981.63
2023-08-31T13:03:02.337Z,100975.13
2023-08-31T13:05:30.174Z,100979.16
2023-08-31T13:07:57.696Z,100978.56
2023-08-31T13:10:25.352Z,100983.66
2023-08-31T13:12:52.864Z,100988.72
2023-08-31T13:15:20.358Z,100979.44
2023-08-31T13:17:47.883Z,100980.03
2023-08-31T13:20:15.599Z,100984.22
2023-08-31T13:22:43.086Z,100981.34
2023-08-31T13:25:12.501Z,100979.16
2023-08-31T13:27:40.082Z,100979.75
2023-08-31T13:30:10.106Z,100974.06
2023-08-31T13:32:37.669Z,100980.03
2023-08-31T13:35:09.238Z,100976.34
2023-08-31T13:37:36.676Z,100980.56
2023-08-31T13:40:08.985Z,100974.66
2023-08-31T13:42:39.200Z,100979.22
2023-08-31T13:45:09.281Z,100981.88
2023-08-31T13:47:36.902Z,100995.59
2023-08-31T13:50:05.278Z,100994.44
2023-08-31T13:52:32.875Z,100992.44
2023-08-31T13:55:00.560Z,100994.81
2023-08-31T13:57:28.033Z,100995.41
2023-08-31T13:59:55.575Z,100994.94
2023-08-31T14:02:23.258Z,100985.50
2023-08-31T14:04:50.778Z,100982.16
2023-08-31T14:07:18.844Z,100982.34
2023-08-31T14:09:46.398Z,100981.75
2023-08-31T14:12:13.908Z,100975.66
2023-08-31T14:14:42.680Z,100979.09
2023-08-31T14:17:10.192Z,100973.66
2023-08-31T14:19:38.754Z,100977.78
2023-08-31T14:22:06.465Z,100977.06
2023-08-31T14:24:34.064Z,100975.16
2023-08-31T14:27:01.512Z,100979.53
2023-08-31T14:29:29.376Z,100966.47
2023-08-31T14:31:56.968Z,100974.91
2023-08-31T14:34:26.204Z,100975.25
2023-08-31T14:37:02.035Z,100973.28
2023-08-31T14:39:32.989Z,100976.19
2023-08-31T14:42:00.748Z,100975.31
2023-08-31T14:44:28.317Z,100978.47
2023-08-31T14:46:57.100Z,100978.38
2023-08-31T14:49:26.228Z,100971.00
2023-08-31T14:51:53.933Z,100977.19
2023-08-31T14:54:21.947Z,100979.13
2023-08-31T14:56:55.069Z,100974.84
2023-08-31T14:59:22.824Z,100988.72
2023-08-31T15:01:50.422Z,100984.97
2023-08-31T15:04:18.134Z,100984.44
2023-08-31T15:06:45.831Z,100983.78
2023-08-31T15:09:13.323Z,100979.69
2023-08-31T15:11:41.792Z,100984.59
2023-08-31T15:14:09.387Z,100983.59
2023-08-31T15:16:38.526Z,100982.22
2023-08-31T15:19:06.199Z,100992.22
2023-08-31T15:21:34.594Z,100988.81
2023-08-31T15:24:03.793Z,100985.47
2023-08-31T15:26:31.388Z,100985.16
2023-08-31T15:28:58.912Z,100989.50
2023-08-31T15:31:27.106Z,100989.88
2023-08-31T15:33:54.866Z,100988.22
2023-08-31T15:36:22.465Z,100991.63
2023-08-31T15:38:50.330Z,100988.63
2023-08-31T15:41:17.881Z,100983.84
2023-08-31T15:43:45.605Z,100986.31
2023-08-31T15:46:13.249Z,100989.81
2023-08-31T15:48:40.998Z,101003.09
2023-08-31T15:51:08.601Z,100992.19
2023-08-31T15:53:37.293Z,100990.00
2023-08-31T15:56:05.911Z,100990.31
2023-08-31T15:58:33.550Z,100987.94
2023-08-31T16:01:04.146Z,100997.00
2023-08-31T16:03:33.278Z,101000.25
2023-08-31T16:06:01.556Z,100992.09
2023-08-31T16:08:29.839Z,100990.94
2023-08-31T16:10:58.523Z,100997.72
2023-08-31T16:13:26.252Z,100994.84
2023-08-31T16:15:54.017Z,101001.81
2023-08-31T16:18:21.569Z,101002.88
2023-08-31T16:20:49.132Z,101001.63
2023-08-31T16:23:16.658Z,101006.44
2023-08-31T16:25:44.270Z,101002.34
2023-08-31T16:28:12.388Z,100997.41
2023-08-31T16:30:40.607Z,101012.75
2023-08-31T16:33:08.278Z,101004.38
2023-08-31T16:35:36.081Z,101003.97
2023-08-31T16:38:04.856Z,101010.84
2023-08-31T16:40:33.495Z,101012.19
2023-08-31T16:43:01.001Z,101017.06
2023-08-31T16:45:29.734Z,101004.97
2023-08-31T16:47:57.398Z,101014.09
2023-08-31T16:50:33.738Z,101011.72
2023-08-31T16:53:02.294Z,101014.00
2023-08-31T16:55:31.277Z,101013.41
2023-08-31T16:57:59.999Z,101017.13
2023-08-31T17:00:27.576Z,101016.44
2023-08-31T17:02:55.209Z,101015.78
2023-08-31T17:05:23.094Z,101013.31
2023-08-31T17:07:50.803Z,101022.25
2023-08-31T17:10:18.614Z,101023.22
2023-08-31T17:12:46.196Z,101018.03
2023-08-31T17:15:13.958Z,101019.94
2023-08-31T17:17:45.674Z,101020.22
2023-08-31T17:20:19.528Z,101022.22
2023-08-31T17:22:47.750Z,101021.44
2023-08-31T17:25:15.409Z,101009.25
2023-08-31T17:27:43.115Z,101012.03
2023-08-31T17:30:10.927Z,101005.78
2023-08-31T17:32:38.983Z,101010.34
2023-08-31T17:35:08.170Z,101008.66
2023-08-31T17:37:37.051Z,101014.16
2023-08-31T17:40:08.688Z,101018.81
2023-08-31T17:42:38.248Z,101023.47
2023-08-31T17:45:06.267Z,101020.03
2023-08-31T17:47:34.035Z,101015.84
2023-08-31T17:50:02.144Z,101017.75
2023-08-31T17:52:29.937Z,101029.31
2023-08-31T17:54:57.738Z,101020.56
2023-08-31T17:57:29.472Z,101023.50
2023-08-31T17:59:57.428Z,101029.09
2023-08-31T18:02:25.131Z,101024.91
2023-08-31T18:04:52.828Z,101033.16
2023-08-31T18:07:20.362Z,101030.94
2023-08-31T18:09:47.931Z,101042.72
2023-08-31T18:12:15.565Z,101031.38
2023-08-31T18:14:44.741Z,101033.34
2023-08-31T18:17:12.779Z,101034.44
2023-08-31T18:19:40.508Z,101039.19
2023-08-31T18:22:08.085Z,101029.66
2023-08-31T18:24:38.243Z,101031.72
2023-08-31T18:27:11.074Z,101040.91
2023-08-31T18:29:38.733Z,101034.13
2023-08-31T18:32:06.864Z,101034.34
2023-08-31T18:35:03.988Z,101038.13
2023-08-31T18:37:31.471Z,101039.47
2023-08-31T18:39:59.201Z,101036.28
2023-08-31T18:42:28.749Z,101035.59
2023-08-31T18:44:56.397Z,101034.03
2023-08-31T18:47:23.984Z,101026.31
2023-08-31T18:49:51.596Z,101031.88
2023-08-31T18:52:19.127Z,101034.81
2023-08-31T18:54:47.949Z,101038.47
2023-08-31T18:57:15.512Z,101036.06
2023-08-31T18:59:43.112Z,101032.69
2023-08-31T19:02:10.738Z,101039.13
2023-08-31T19:04:38.250Z,101039.28
2023-08-31T19:07:05.830Z,101040.38
2023-08-31T19:09:33.342Z,101038.84
2023-08-31T19:12:01.046Z,101048.75
2023-08-31T19:14:28.529Z,101041.03
2023-08-31T19:16:56.204Z,101051.81
2023-08-31T19:19:23.800Z,101053.84
2023-08-31T19:21:51.347Z,101056.66
2023-08-31T19:24:18.890Z,101061.34
2023-08-31T19:26:46.478Z,101065.97
2023-08-31T19:29:13.964Z,101063.53
2023-08-31T19:31:41.595Z,101069.06
2023-08-31T19:34:09.128Z,101064.75
2023-08-31T19:36:36.712Z,101064.13
2023-08-31T19:39:04.466Z,101067.09
2023-08-31T19:41:32.498Z,101073.47
2023-08-31T19:44:00.102Z,101079.88
2023-08-31T19:46:27.605Z,101082.84
2023-08-31T19:48:55.808Z,101091.03
2023-08-31T19:51:23.454Z,101095.63
2023-08-31T19:53:51.009Z,101088.81
2023-08-31T19:56:19.507Z,101091.69
2023-08-31T19:58:46.975Z,101087.47
2023-08-31T20:01:15.559Z,101090.34
2023-08-31T20:03:43.099Z,101085.16
2023-08-31T20:06:10.617Z,101081.00
2023-08-31T20:08:39.116Z,101084.72
2023-08-31T20:11:06.801Z,101087.59
2023-08-31T20:13:34.352Z,101088.69
2023-08-31T20:16:05.903Z,101087.97
2023-08-31T20:18:33.425Z,101091.13
2023-08-31T20:21:00.880Z,101094.91
2023-08-31T20:23:28.433Z,101095.00
2023-08-31T20:25:56.747Z,101105.66
2023-08-31T20:28:25.476Z,101098.63
2023-08-31T20:30:52.999Z,101092.63
2023-08-31T20:33:20.770Z,101102.34
2023-08-31T20:35:49.136Z,101104.19
2023-08-31T20:38:16.930Z,101104.31
2023-08-31T20:40:45.229Z,101104.44
2023-08-31T20:43:12.775Z,101101.09
2023-08-31T20:45:40.395Z,101102.06
2023-08-31T20:48:10.835Z,101095.97
2023-08-31T20:50:38.733Z,101099.63
2023-08-31T20:53:06.476Z,101098.06
2023-08-31T20:55:34.176Z,101092.00
2023-08-31T20:58:01.777Z,101098.38
2023-08-31T21:00:29.462Z,101096.75
2023-08-31T21:02:57.092Z,101092.50
2023-08-31T21:05:24.645Z,101088.19
2023-08-31T21:07:52.189Z,101090.97
2023-08-31T21:10:20.872Z,101085.03
2023-08-31T21:12:48.383Z,101092.19
2023-08-31T21:15:15.954Z,101090.59
2023-08-31T21:17:43.621Z,101092.44
2023-08-31T21:20:11.613Z,101099.59
2023-08-31T21:22:39.235Z,101091.75
2023-08-31T21:25:07.848Z,101094.50
2023-08-31T21:27:35.390Z,101093.75
2023-08-31T21:30:03.156Z,101089.53
2023-08-31T21:32:30.803Z,101091.38
2023-08-31T21:34:58.415Z,101087.06
2023-08-31T21:37:25.921Z,101088.03
2023-08-31T21:39:54.058Z,101093.44
2023-08-31T21:42:21.530Z,101090.91
2023-08-31T21:44:49.061Z,101086.59
2023-08-31T21:47:16.675Z,101100.88
2023-08-31T21:49:44.580Z,101087.75
2023-08-31T21:52:12.167Z,101091.41
2023-08-31T21:54:39.735Z,101100.28
2023-08-31T21:57:07.414Z,101089.81
2023-08-31T21:59:35.089Z,101091.66
2023-08-31T22:02:02.739Z,101096.16
2023-08-31T22:04:31.096Z,101103.31
2023-08-31T22:06:58.707Z,101093.72
2023-08-31T22:09:27.118Z,101093.75
2023-08-31T22:11:54.676Z,101103.59
2023-08-31T22:14:22.265Z,101102.81
2023-08-31T22:16:49.822Z,101097.66
2023-08-31T22:19:17.477Z,101103.03
2023-08-31T22:21:45.208Z,101110.25
2023-08-31T22:24:12.735Z,101103.25
2023-08-31T22:26:40.293Z,101109.59
2023-08-31T22:29:08.129Z,101106.25
2023-08-31T22:31:35.767Z,101108.94
2023-08-31T22:34:03.892Z,101111.63
2023-08-31T22:36:31.500Z,101106.47
2023-08-31T22:38:59.992Z,101108.25
2023-08-31T22:41:27.790Z,101105.69
2023-08-31T22:43:56.248Z,101108.38
2023-08-31T22:46:23.761Z,101102.28
2023-08-31T22:48:51.332Z,101102.34
2023-08-31T22:51:18.846Z,101097.09
2023-08-31T22:53:46.387Z,101094.53
2023-08-31T22:56:14.132Z,101093.66
2023-08-31T22:58:41.712Z,101092.78
2023-08-31T23:01:09.282Z,101089.28
2023-08-31T23:03:36.974Z,101092.75
2023-08-31T23:06:04.602Z,101090.09
2023-08-31T23:08:32.119Z,101088.31
2023-08-31T23:11:01.400Z,101092.69
2023-08-31T23:13:29.182Z,101094.44
2023-08-31T23:15:56.965Z,101091.88
2023-08-31T23:18:25.093Z,101102.53
2023-08-31T23:20:52.584Z,101095.63
2023-08-31T23:23:22.120Z,101101.97
2023-08-31T23:25:49.702Z,101100.34
2023-08-31T23:28:17.243Z,101091.63
2023-08-31T23:30:44.752Z,101088.22
2023-08-31T23:33:12.548Z,101089.16
2023-08-31T23:35:40.342Z,101091.84
2023-08-31T23:38:08.531Z,101097.25
2023-08-31T23:40:36.504Z,101097.38
2023-08-31T23:43:04.607Z,101100.13
2023-08-31T23:45:32.648Z,101096.75
2023-08-31T23:48:00.397Z,101092.38
2023-08-31T23:50:28.404Z,101097.69
2023-08-31T23:52:55.953Z,101090.72
2023-08-31T23:55:23.421Z,101081.97
2023-08-31T23:57:51.063Z,101091.75
